Pilot Rock, Oregon
Current Conditions -  °F | °C
As of 9:53 AM on Tuesday 21 Oct 2014 (Local Time) from KPDT Reporting Station
Broken Clouds Broken Clouds  
Wind Chill: 12°   Ceiling: 8500
Heat Index: 12°   Visibility: 10mi
Dew Point:   Wind: 7mph
Humidity: 74%   Direction: 170°S
Pressure: 29.97"   Gusts: NA
Location:  45.48°N, 118.83°W
Report Text: KPDT 211653Z 17006KT 10SM BKN085 12/07 A2997 RMK AO2 SLP144 T01170072
Loading
Personal Weather Stations






























Interactive Weather Map
Tropical Storm Tracking
New forecast layout! Learn more

10-Day Weather Forecast

Advertisements
Track Severe Weather on mobile